TAF LDZA 270525Z 2706/2806 VRB02KT CAVOK
                 TX22/2713Z TN10/2804Z=
TAF LDZA 262329Z 2700/2800 08006KT CAVOK
                 TX22/2713Z TN10/2704Z=
TAF AMD LDZA 262057Z 2620/2718 05006KT CAVOK
                     TX21/2713Z TN11/2704Z=
TAF LDZA 261725Z 2618/2718 05015KT CAVOK
                 TX21/2713Z TN11/2704Z
    PROB30 TEMPO 2618/2621 05018G28KT
           BECMG 2623/2701 05006KT=
TAF LDZA 261125Z 2612/2712 07008KT 9999 SCT045
                 TX24/2612Z TN11/2704Z
    PROB40 TEMPO 2612/2618 SHRA FEW030TCU BKN035
    PROB30 TEMPO 2612/2618 TSRA FEW030CB BKN035
           TEMPO 2614/2622 05015KT
    PROB30 TEMPO 2615/2620 05018G28KT
           BECMG 2623/2701 VRB02KT=
TAF LDZA 260525Z 2606/2706 23005KT CAVOK
                 TX23/2612Z TN11/2704Z
           BECMG 2608/2610 05008KT
    PROB40 TEMPO 2610/2617 SHRA FEW030TCU BKN035
    PROB30 TEMPO 2610/2617 TSRA FEW030CB BKN035
           TEMPO 2614/2622 05015KT
    PROB30 TEMPO 2615/2620 05018G28KT
           BECMG 2623/2701 VRB02KT=
TAF LDZA 252325Z 2600/2700 23005KT CAVOK
                 TX24/2612Z TN12/2602Z
           BECMG 2609/2611 05008KT
    PROB40 TEMPO 2610/2615 SHRA FEW030TCU BKN035
    PROB30 TEMPO 2611/2615 TSRA FEW030CB BKN035
           TEMPO 2613/2619 05015KT
           BECMG 2621/2623 VRB02KT=
TAF AMD LDZA 252129Z 2521/2618 23004KT CAVOK
                     TX24/2612Z TN12/2602Z
               BECMG 2609/2611 05008KT
        PROB40 TEMPO 2611/2616 SHRA FEW030TCU BKN040
        PROB30 TEMPO 2612/2615 TSRA FEW030CB BKN040
               TEMPO 2612/2618 05015KT=